createdAt,value
2017-04-05T00:00:32.453Z,64.40
2017-04-05T00:01:30.823Z,64.40
2017-04-05T00:02:29.184Z,64.50
2017-04-05T00:03:27.642Z,65.10
2017-04-05T00:04:26.111Z,64.60
2017-04-05T00:05:25.375Z,64.50
2017-04-05T00:06:24.529Z,64.60
2017-04-05T00:07:22.910Z,64.60
2017-04-05T00:08:21.314Z,64.50
2017-04-05T00:09:20.511Z,64.60
2017-04-05T00:10:19.718Z,64.60
2017-04-05T00:11:18.049Z,65.00
2017-04-05T00:12:16.410Z,64.60
2017-04-05T00:13:15.629Z,64.70
2017-04-05T00:14:14.004Z,64.40
2017-04-05T00:15:12.430Z,64.70
2017-04-05T00:16:10.825Z,64.80
2017-04-05T00:17:16.572Z,64.80
2017-04-05T00:18:15.711Z,64.80
2017-04-05T00:19:14.145Z,64.80
2017-04-05T00:20:12.521Z,64.90
2017-04-05T00:21:10.937Z,64.90
2017-04-05T00:22:09.347Z,64.80
2017-04-05T00:23:07.729Z,65.00
2017-04-05T00:24:06.154Z,64.90
2017-04-05T00:25:04.522Z,64.90
2017-04-05T00:27:01.834Z,65.10
2017-04-05T00:28:00.174Z,65.10
2017-04-05T00:28:58.580Z,65.10
2017-04-05T00:29:56.997Z,65.10
2017-04-05T00:30:55.513Z,65.30
2017-04-05T00:31:53.882Z,65.30
2017-04-05T00:32:52.217Z,65.30
2017-04-05T00:33:50.574Z,65.30
2017-04-05T00:34:48.905Z,65.30
2017-04-05T00:35:47.265Z,65.40
2017-04-05T00:36:45.641Z,65.40
2017-04-05T00:37:43.989Z,65.40
2017-04-05T00:38:42.333Z,65.40
2017-04-05T00:39:40.747Z,65.60
2017-04-05T00:40:39.130Z,65.60
2017-04-05T00:41:37.500Z,65.60
2017-04-05T00:42:35.864Z,65.60
2017-04-05T00:43:34.260Z,65.50
2017-04-05T00:44:33.373Z,65.40
2017-04-05T00:45:31.758Z,65.30
2017-04-05T00:46:30.250Z,65.30
2017-04-05T00:47:28.625Z,65.30
2017-04-05T00:48:26.987Z,65.40
2017-04-05T00:49:25.332Z,65.40
2017-04-05T00:50:24.435Z,65.30
2017-04-05T00:51:22.930Z,65.40
2017-04-05T00:52:22.061Z,65.00
2017-04-05T00:53:20.416Z,65.60
2017-04-05T00:54:18.893Z,65.50
2017-04-05T00:55:17.318Z,65.50
2017-04-05T00:56:15.697Z,65.50
2017-04-05T00:57:14.065Z,65.50
2017-04-05T00:58:12.569Z,65.40
2017-04-05T00:59:11.092Z,65.40
2017-04-05T01:00:09.547Z,65.50
2017-04-05T01:01:07.945Z,65.40
2017-04-05T01:02:07.094Z,65.50
2017-04-05T01:03:05.470Z,65.30
2017-04-05T01:04:03.925Z,65.20
2017-04-05T01:05:02.494Z,65.10
2017-04-05T01:06:00.905Z,65.00
2017-04-05T01:07:00.021Z,65.00
2017-04-05T01:07:59.105Z,64.90
2017-04-05T01:08:57.610Z,64.90
2017-04-05T01:09:56.303Z,64.80
2017-04-05T01:10:54.701Z,64.80
2017-04-05T01:11:53.801Z,64.70
2017-04-05T01:12:51.407Z,64.70
2017-04-05T01:13:49.789Z,64.60
2017-04-05T01:14:48.213Z,64.60
2017-04-05T01:15:46.577Z,64.60
2017-04-05T01:16:44.961Z,64.60
2017-04-05T01:17:43.453Z,64.60
2017-04-05T01:18:41.786Z,64.60
2017-04-05T01:19:40.237Z,64.60
2017-04-05T01:20:38.601Z,64.60
2017-04-05T01:21:36.969Z,64.70
2017-04-05T01:22:36.032Z,64.50
2017-04-05T01:23:34.358Z,64.60
2017-04-05T01:24:32.725Z,64.70
2017-04-05T01:25:31.081Z,64.70
2017-04-05T01:26:30.189Z,64.70
2017-04-05T01:27:28.538Z,64.80
2017-04-05T01:28:26.977Z,65.30
2017-04-05T01:30:25.025Z,65.00
2017-04-05T01:31:23.392Z,65.10
2017-04-05T01:32:21.749Z,65.80
2017-04-05T01:33:20.137Z,65.20
2017-04-05T01:34:18.489Z,65.30
2017-04-05T01:35:16.862Z,65.20
2017-04-05T01:36:15.288Z,65.10
2017-04-05T01:37:13.668Z,65.20
2017-04-05T01:38:12.769Z,65.30
2017-04-05T01:39:11.164Z,65.40
2017-04-05T01:40:09.510Z,65.50
2017-04-05T01:41:07.877Z,65.40
2017-04-05T01:42:06.228Z,65.40
2017-04-05T01:43:05.617Z,65.40
2017-04-05T01:44:04.032Z,65.40
2017-04-05T01:45:02.389Z,65.50
2017-04-05T01:46:00.753Z,65.50
2017-04-05T01:46:59.191Z,65.40
2017-04-05T01:47:57.504Z,65.40
2017-04-05T01:48:55.885Z,65.40
2017-04-05T01:49:54.256Z,66.00
2017-04-05T01:50:52.637Z,65.40
2017-04-05T01:51:51.774Z,65.30
2017-04-05T01:52:50.154Z,65.30
2017-04-05T01:53:48.545Z,65.20
2017-04-05T01:54:46.941Z,65.20
2017-04-05T01:55:46.053Z,65.10
2017-04-05T01:56:45.135Z,65.50
2017-04-05T01:57:43.495Z,65.10
2017-04-05T01:58:41.958Z,65.10
2017-04-05T01:59:41.109Z,65.70
2017-04-05T02:00:39.643Z,65.10
2017-04-05T02:01:38.061Z,65.10
2017-04-05T02:02:36.560Z,65.10
2017-04-05T02:03:34.983Z,65.70
2017-04-05T02:04:33.392Z,65.20
2017-04-05T02:05:32.495Z,65.20
2017-04-05T02:06:30.873Z,65.30
2017-04-05T02:07:29.196Z,65.30
2017-04-05T02:08:28.330Z,65.30
2017-04-05T02:09:26.674Z,65.30
2017-04-05T02:10:25.812Z,65.30
2017-04-05T02:11:24.189Z,65.40
2017-04-05T02:12:22.521Z,65.50
2017-04-05T02:13:20.969Z,65.60
2017-04-05T02:14:19.337Z,65.60
2017-04-05T02:15:17.745Z,65.50
2017-04-05T02:16:16.168Z,65.70
2017-04-05T02:17:14.545Z,65.80
2017-04-05T02:18:12.918Z,65.90
2017-04-05T02:19:12.008Z,65.90
2017-04-05T02:20:10.252Z,66.00
2017-04-05T02:21:08.666Z,65.90
2017-04-05T02:22:07.065Z,66.00
2017-04-05T02:23:05.449Z,66.10
2017-04-05T02:24:03.868Z,66.20
2017-04-05T02:25:02.220Z,66.20
2017-04-05T02:26:01.385Z,66.20
2017-04-05T02:27:00.513Z,66.30
2017-04-05T02:27:58.906Z,66.40
2017-04-05T02:28:57.317Z,66.50
2017-04-05T02:29:55.921Z,66.60
2017-04-05T02:30:54.361Z,66.60
2017-04-05T02:31:53.482Z,66.70
2017-04-05T02:32:51.951Z,66.80
2017-04-05T02:33:50.486Z,66.90
2017-04-05T02:34:48.833Z,66.90
2017-04-05T02:35:47.409Z,67.00
2017-04-05T02:36:46.061Z,67.10
2017-04-05T02:37:44.740Z,67.10
2017-04-05T02:38:44.069Z,67.20
2017-04-05T02:40:41.701Z,67.50
2017-04-05T02:41:46.650Z,67.50
2017-04-05T02:42:45.157Z,67.50
2017-04-05T02:43:43.613Z,67.50
2017-04-05T02:44:42.115Z,67.50
2017-04-05T02:45:40.643Z,67.40
2017-04-05T02:46:39.077Z,67.40
2017-04-05T02:47:37.469Z,67.40
2017-04-05T02:48:35.797Z,67.40
2017-04-05T02:49:34.134Z,67.60
2017-04-05T02:50:32.498Z,67.80
2017-04-05T02:51:31.602Z,67.90
2017-04-05T02:52:29.924Z,68.00
2017-04-05T02:53:28.506Z,67.90
2017-04-05T02:54:27.860Z,67.90
2017-04-05T02:55:26.353Z,68.20
2017-04-05T02:56:24.768Z,68.10
2017-04-05T02:57:23.257Z,68.50
2017-04-05T02:58:21.657Z,68.30
2017-04-05T02:59:20.084Z,68.20
2017-04-05T03:00:18.625Z,68.20
2017-04-05T03:01:17.176Z,68.20
2017-04-05T03:02:16.341Z,68.20
2017-04-05T03:03:14.781Z,68.10
2017-04-05T03:04:13.204Z,68.00
2017-04-05T03:05:11.613Z,68.00
2017-04-05T03:06:10.834Z,67.90
2017-04-05T03:07:09.286Z,67.80
2017-04-05T03:08:07.782Z,67.80
2017-04-05T03:09:06.241Z,67.80
2017-04-05T03:10:05.359Z,67.80
2017-04-05T03:11:03.781Z,67.70
2017-04-05T03:12:02.202Z,67.70
2017-04-05T03:13:00.669Z,67.70
2017-04-05T03:13:59.149Z,67.70
2017-04-05T03:14:57.639Z,67.70
2017-04-05T03:15:56.024Z,67.60
2017-04-05T03:16:54.474Z,67.60
2017-04-05T03:17:53.705Z,67.60
2017-04-05T03:18:52.171Z,67.70
2017-04-05T03:19:50.601Z,67.70
2017-04-05T03:20:49.859Z,67.70
2017-04-05T03:21:48.333Z,67.70
2017-04-05T03:22:46.857Z,67.70
2017-04-05T03:23:45.439Z,68.30
2017-04-05T03:24:43.823Z,68.10
2017-04-05T03:25:42.319Z,67.90
2017-04-05T03:26:40.822Z,68.00
2017-04-05T03:27:40.017Z,68.00
2017-04-05T03:28:39.218Z,68.10
2017-04-05T03:29:38.415Z,68.10
2017-04-05T03:30:36.924Z,68.10
2017-04-05T03:31:35.377Z,68.10
2017-04-05T03:32:33.949Z,68.20
2017-04-05T03:33:32.477Z,68.20
2017-04-05T03:34:31.678Z,68.10
2017-04-05T03:35:30.141Z,68.00
2017-04-05T03:36:29.365Z,68.00
2017-04-05T03:37:27.833Z,68.00
2017-04-05T03:38:26.300Z,67.90
2017-04-05T03:39:24.753Z,68.10
2017-04-05T03:40:23.205Z,68.10
2017-04-05T03:41:21.700Z,68.20
2017-04-05T03:42:20.101Z,68.10
2017-04-05T03:43:18.546Z,68.10
2017-04-05T03:44:17.009Z,68.20
2017-04-05T03:45:15.486Z,68.20
2017-04-05T03:46:14.011Z,68.20
2017-04-05T03:47:12.441Z,68.20
2017-04-05T03:48:10.968Z,68.30
2017-04-05T03:49:09.483Z,68.50
2017-04-05T03:50:07.978Z,68.50
2017-04-05T03:51:06.529Z,68.70
2017-04-05T03:52:05.097Z,68.80
2017-04-05T03:53:03.621Z,68.80
2017-04-05T03:54:02.085Z,68.80
2017-04-05T03:55:00.621Z,68.90
2017-04-05T03:55:59.121Z,68.90
2017-04-05T03:56:57.517Z,68.90
2017-04-05T03:57:56.034Z,68.90
2017-04-05T03:58:54.541Z,68.90
2017-04-05T03:59:53.004Z,68.90
2017-04-05T04:00:51.481Z,69.00
2017-04-05T04:01:49.969Z,69.10
2017-04-05T04:02:49.177Z,69.00
2017-04-05T04:03:48.347Z,69.10
2017-04-05T04:04:47.596Z,69.10
2017-04-05T04:05:46.042Z,69.10
2017-04-05T04:06:44.514Z,69.20
2017-04-05T04:07:43.037Z,69.30
2017-04-05T04:08:42.282Z,69.30
2017-04-05T04:09:40.702Z,69.30
2017-04-05T04:10:39.146Z,69.30
2017-04-05T04:11:37.645Z,69.30
2017-04-05T04:12:36.778Z,69.30
2017-04-05T04:13:35.270Z,69.50
2017-04-05T04:14:33.729Z,69.50
2017-04-05T04:15:32.139Z,69.50
2017-04-05T04:16:30.588Z,69.60
2017-04-05T04:17:29.049Z,69.60
2017-04-05T04:18:27.461Z,69.60
2017-04-05T04:19:25.968Z,69.70
2017-04-05T04:20:24.537Z,69.70
2017-04-05T04:21:24.377Z,69.70
2017-04-05T04:22:22.896Z,69.80
2017-04-05T04:23:21.317Z,69.90
2017-04-05T04:24:19.776Z,69.90
2017-04-05T04:25:19.021Z,69.80
2017-04-05T04:26:17.467Z,69.90
2017-04-05T04:27:15.874Z,70.00
2017-04-05T04:28:14.374Z,70.00
2017-04-05T04:29:12.728Z,70.00
2017-04-05T04:30:11.169Z,70.10
2017-04-05T04:31:10.421Z,70.10
2017-04-05T04:32:08.897Z,70.20
2017-04-05T04:33:07.355Z,70.20
2017-04-05T04:34:05.745Z,70.30
2017-04-05T04:35:04.233Z,70.40
2017-04-05T04:36:02.793Z,70.30
2017-04-05T04:37:01.217Z,70.30
2017-04-05T04:37:59.653Z,70.50
2017-04-05T04:38:58.778Z,70.60
2017-04-05T04:39:57.184Z,70.60
2017-04-05T04:40:55.633Z,70.60
2017-04-05T04:41:54.122Z,70.70
2017-04-05T04:42:52.585Z,71.40
2017-04-05T04:43:51.020Z,70.80
2017-04-05T04:44:49.556Z,70.90
2017-04-05T04:45:47.974Z,71.00
2017-04-05T04:46:46.321Z,71.00
2017-04-05T04:47:44.673Z,71.20
2017-04-05T04:48:43.832Z,70.90
2017-04-05T04:49:42.332Z,71.00
2017-04-05T04:50:41.533Z,71.00
2017-04-05T04:51:40.704Z,70.90
2017-04-05T04:52:39.125Z,71.10
2017-04-05T04:53:37.541Z,71.00
2017-04-05T04:54:36.793Z,71.20
2017-04-05T04:55:35.246Z,71.20
2017-04-05T04:56:34.524Z,71.20
2017-04-05T04:57:33.026Z,71.30
2017-04-05T04:58:31.414Z,71.20
2017-04-05T04:59:29.822Z,71.20
2017-04-05T05:00:29.074Z,71.20
2017-04-05T05:01:27.582Z,71.30
2017-04-05T05:02:26.053Z,71.40
2017-04-05T05:03:24.562Z,71.40
2017-04-05T05:04:23.073Z,71.40
2017-04-05T05:05:22.266Z,71.40
2017-04-05T05:06:21.497Z,71.40
2017-04-05T05:07:19.961Z,71.40
2017-04-05T05:08:19.174Z,71.40
2017-04-05T05:09:17.717Z,71.50
2017-04-05T05:10:16.141Z,71.50
2017-04-05T05:11:15.307Z,71.80
2017-04-05T05:12:13.765Z,71.60
2017-04-05T05:13:12.910Z,71.60
2017-04-05T05:14:12.210Z,71.70
2017-04-05T05:15:10.573Z,71.70
2017-04-05T05:16:09.760Z,71.70
2017-04-05T05:17:08.941Z,71.70
2017-04-05T05:18:08.278Z,71.70
2017-04-05T05:19:06.745Z,71.80
2017-04-05T05:20:05.286Z,71.80
2017-04-05T05:21:04.549Z,71.80
2017-04-05T05:22:03.709Z,71.90
2017-04-05T05:23:02.105Z,71.90
2017-04-05T05:24:01.297Z,72.00
2017-04-05T05:25:00.577Z,72.10
2017-04-05T05:25:58.948Z,72.10
2017-04-05T05:26:58.173Z,72.20
2017-04-05T05:27:57.331Z,72.20
2017-04-05T05:28:55.772Z,72.30
2017-04-05T05:29:54.281Z,72.20
2017-04-05T05:30:52.696Z,72.20
2017-04-05T05:31:51.095Z,72.20
2017-04-05T05:32:49.577Z,72.30
2017-04-05T05:33:48.897Z,72.20
2017-04-05T05:34:47.437Z,72.40
2017-04-05T05:35:46.712Z,72.40
2017-04-05T05:36:45.154Z,72.40
2017-04-05T05:37:43.567Z,72.40
2017-04-05T05:38:41.971Z,72.40
2017-04-05T05:39:40.361Z,72.50
2017-04-05T05:40:38.741Z,72.50
2017-04-05T05:41:37.283Z,72.50
2017-04-05T05:42:35.743Z,72.50
2017-04-05T05:43:34.142Z,72.60
2017-04-05T05:44:33.323Z,72.60
2017-04-05T05:45:31.745Z,72.50
2017-04-05T05:46:30.161Z,72.60
2017-04-05T05:47:28.546Z,72.60
2017-04-05T05:48:27.757Z,72.10
2017-04-05T05:49:26.228Z,72.80
2017-04-05T05:50:24.714Z,72.80
2017-04-05T05:51:24.031Z,73.00
2017-04-05T05:52:22.519Z,72.70
2017-04-05T05:53:21.725Z,72.60
2017-04-05T05:54:20.166Z,72.60
2017-04-05T05:55:19.312Z,72.50
2017-04-05T05:56:17.747Z,72.50
2017-04-05T05:57:16.245Z,72.50
2017-04-05T05:58:14.691Z,72.50
2017-04-05T05:59:14.073Z,72.70
2017-04-05T06:00:12.636Z,72.70
2017-04-05T06:01:11.120Z,72.70
2017-04-05T06:02:10.376Z,72.30
2017-04-05T06:03:09.557Z,72.60
2017-04-05T06:04:08.719Z,72.60
2017-04-05T06:05:07.178Z,72.70
2017-04-05T06:06:05.635Z,72.60
2017-04-05T06:07:04.769Z,72.60
2017-04-05T06:08:03.951Z,72.50
2017-04-05T06:09:03.396Z,72.60
2017-04-05T06:10:01.802Z,72.50
2017-04-05T06:11:00.266Z,72.50
2017-04-05T06:11:58.733Z,72.60
2017-04-05T06:12:57.204Z,72.60
2017-04-05T06:13:55.634Z,72.60
2017-04-05T06:14:54.804Z,72.70
2017-04-05T06:15:53.205Z,72.70
2017-04-05T06:16:51.597Z,72.80
2017-04-05T06:17:50.204Z,72.80
2017-04-05T06:18:48.614Z,72.80
2017-04-05T06:19:47.061Z,73.70
2017-04-05T06:20:45.534Z,73.00
2017-04-05T06:21:44.766Z,72.90
2017-04-05T06:22:43.241Z,73.00
2017-04-05T06:23:41.703Z,73.10
2017-04-05T06:24:40.111Z,73.20
2017-04-05T06:25:38.495Z,73.20
2017-04-05T06:26:37.639Z,73.10
2017-04-05T06:27:36.038Z,73.10
2017-04-05T06:28:34.458Z,73.80
2017-04-05T06:29:32.830Z,73.20
2017-04-05T06:30:31.994Z,73.20
2017-04-05T06:31:30.461Z,73.20
2017-04-05T06:32:28.838Z,73.30
2017-04-05T06:33:27.319Z,73.50
2017-04-05T06:34:25.697Z,73.40
2017-04-05T06:35:24.106Z,73.30
2017-04-05T06:36:22.460Z,73.20
2017-04-05T06:37:20.893Z,73.20
2017-04-05T06:38:20.091Z,73.10
2017-04-05T06:39:18.575Z,73.20
2017-04-05T06:40:17.031Z,73.10
2017-04-05T06:41:15.435Z,73.10
2017-04-05T06:42:13.977Z,73.00
2017-04-05T06:43:12.326Z,73.20
2017-04-05T06:44:10.728Z,73.10
2017-04-05T06:45:09.159Z,73.00
2017-04-05T06:47:06.678Z,73.00
2017-04-05T06:48:05.151Z,73.20
2017-04-05T06:49:03.604Z,73.10
2017-04-05T06:50:02.005Z,73.00
2017-04-05T06:51:01.345Z,73.00
2017-04-05T06:51:59.753Z,73.00
2017-04-05T06:52:58.197Z,72.90
2017-04-05T06:53:57.357Z,73.10
2017-04-05T06:54:55.746Z,73.00
2017-04-05T06:55:54.202Z,73.00
2017-04-05T06:56:53.402Z,73.00
2017-04-05T06:57:51.794Z,73.10
2017-04-05T06:58:50.187Z,73.10
2017-04-05T06:59:48.618Z,73.00
2017-04-05T07:00:47.081Z,72.90
2017-04-05T07:01:45.474Z,73.00
2017-04-05T07:02:43.948Z,72.80
2017-04-05T07:03:42.353Z,72.80
2017-04-05T07:04:41.507Z,72.70
2017-04-05T07:05:39.959Z,72.70
2017-04-05T07:06:38.305Z,72.80
2017-04-05T07:07:36.694Z,72.80
2017-04-05T07:08:35.865Z,72.80
2017-04-05T07:09:34.293Z,72.80
2017-04-05T07:10:32.678Z,72.80
2017-04-05T07:11:31.813Z,72.70
2017-04-05T07:12:30.168Z,72.80
2017-04-05T07:13:28.541Z,72.80
2017-04-05T07:14:27.089Z,72.60
2017-04-05T07:15:26.194Z,72.60
2017-04-05T07:16:24.583Z,72.50
2017-04-05T07:17:22.973Z,72.30
2017-04-05T07:18:21.336Z,72.20
2017-04-05T07:19:19.717Z,72.10
2017-04-05T07:20:18.093Z,72.10
2017-04-05T07:21:17.422Z,71.90
2017-04-05T07:22:15.822Z,71.90
2017-04-05T07:23:14.309Z,71.80
2017-04-05T07:24:12.687Z,71.70
2017-04-05T07:25:11.897Z,71.40
2017-04-05T07:26:10.355Z,71.20
2017-04-05T07:27:08.813Z,70.80
2017-04-05T07:28:07.247Z,71.10
2017-04-05T07:29:06.401Z,70.50
2017-04-05T07:30:04.926Z,71.60
2017-04-05T07:31:03.517Z,70.70
2017-04-05T07:32:02.694Z,70.40
2017-04-05T07:33:01.183Z,70.30
2017-04-05T07:33:59.754Z,70.00
2017-04-05T07:34:58.183Z,69.90
2017-04-05T07:35:56.607Z,69.80
2017-04-05T07:36:55.725Z,69.70
2017-04-05T07:37:54.221Z,69.50
2017-04-05T07:38:52.620Z,68.60
2017-04-05T07:39:51.001Z,68.40
2017-04-05T07:40:49.393Z,68.20
2017-04-05T07:41:48.608Z,68.10
2017-04-05T07:42:47.010Z,68.20
2017-04-05T07:43:45.433Z,68.10
2017-04-05T07:44:43.845Z,68.20
2017-04-05T07:45:42.274Z,68.00
2017-04-05T07:46:40.734Z,68.00
2017-04-05T07:47:39.133Z,67.80
2017-04-05T07:48:37.589Z,67.90
2017-04-05T07:49:36.084Z,67.80
2017-04-05T07:50:35.289Z,68.50
2017-04-05T07:51:33.706Z,67.50
2017-04-05T07:52:32.212Z,67.30
2017-04-05T07:53:30.634Z,67.10
2017-04-05T07:54:29.069Z,67.10
2017-04-05T07:55:28.229Z,66.90
2017-04-05T07:56:26.661Z,66.40
2017-04-05T07:57:25.080Z,66.70
2017-04-05T07:58:23.590Z,66.30
2017-04-05T07:59:22.003Z,66.50
2017-04-05T08:00:20.426Z,66.40
2017-04-05T08:01:18.998Z,66.50
2017-04-05T08:02:17.545Z,66.80
2017-04-05T08:03:15.941Z,67.10
2017-04-05T08:04:14.469Z,67.40
2017-04-05T08:05:12.844Z,67.70
2017-04-05T08:06:11.229Z,67.70
2017-04-05T08:07:09.653Z,67.10
2017-04-05T08:08:08.104Z,67.40
2017-04-05T08:09:07.273Z,67.40
2017-04-05T08:10:05.757Z,67.10
2017-04-05T08:11:05.127Z,66.80
2017-04-05T08:12:04.305Z,66.90
2017-04-05T08:13:02.754Z,66.70
2017-04-05T08:14:01.359Z,66.90
2017-04-05T08:14:59.785Z,66.60
2017-04-05T08:15:58.145Z,66.50
2017-04-05T08:16:56.548Z,65.70
2017-04-05T08:17:54.997Z,66.00
2017-04-05T08:18:53.366Z,65.90
2017-04-05T08:19:51.846Z,65.50
2017-04-05T08:20:50.228Z,65.30
2017-04-05T08:21:49.111Z,65.20
2017-04-05T08:22:47.575Z,64.50
2017-04-05T08:23:45.913Z,64.60
2017-04-05T08:24:44.268Z,63.20
2017-04-05T08:25:42.673Z,62.00
2017-04-05T08:26:41.046Z,61.30
2017-04-05T08:27:40.047Z,62.00
2017-04-05T08:28:38.421Z,61.50
2017-04-05T08:29:36.757Z,61.90
2017-04-05T08:30:35.305Z,61.90
2017-04-05T08:31:33.679Z,61.40
2017-04-05T08:32:32.041Z,61.60
2017-04-05T08:33:30.393Z,61.00
2017-04-05T08:34:28.690Z,61.10
2017-04-05T08:35:27.145Z,60.90
2017-04-05T08:36:25.517Z,60.50
2017-04-05T08:37:23.923Z,60.40
2017-04-05T08:38:22.373Z,60.40
2017-04-05T08:39:20.714Z,60.30
2017-04-05T08:40:19.765Z,59.60
2017-04-05T08:41:18.092Z,59.90
2017-04-05T08:42:16.501Z,60.40
2017-04-05T09:00:49.573Z,57.70
2017-04-05T09:01:47.900Z,56.50
2017-04-05T09:02:46.197Z,56.50
2017-04-05T09:03:44.546Z,57.10
2017-04-05T09:04:42.888Z,56.20
2017-04-05T09:05:41.209Z,54.90
2017-04-05T09:06:39.617Z,53.70
2017-04-05T09:07:38.009Z,54.40
2017-04-05T09:08:36.396Z,52.80
2017-04-05T09:09:35.477Z,53.30
2017-04-05T09:10:33.789Z,54.90
2017-04-05T09:11:32.116Z,53.60
2017-04-05T09:12:30.945Z,53.90
2017-04-05T09:13:29.301Z,54.00
2017-04-05T09:14:27.760Z,53.60
2017-04-05T09:15:26.109Z,52.80
2017-04-05T09:16:24.489Z,53.00
2017-04-05T09:17:22.856Z,53.00
2017-04-05T09:18:21.264Z,53.30
2017-04-05T09:19:19.621Z,52.10
2017-04-05T09:20:17.912Z,53.10
2017-04-05T09:21:16.229Z,52.50
2017-04-05T09:22:14.608Z,53.80
2017-04-05T09:23:12.957Z,53.60
2017-04-05T09:24:11.352Z,51.80
2017-04-05T09:25:09.717Z,51.70
2017-04-05T09:26:08.117Z,52.20
2017-04-05T09:27:06.421Z,51.60
2017-04-05T09:28:05.437Z,50.90
2017-04-05T09:29:03.729Z,51.50
2017-04-05T09:30:02.373Z,52.00
2017-04-05T09:31:00.624Z,52.30
2017-04-05T09:31:58.919Z,52.40
2017-04-05T09:33:09.575Z,52.70
2017-04-05T09:34:07.829Z,52.30
2017-04-05T09:35:06.872Z,52.30
2017-04-05T09:36:17.585Z,51.60
2017-04-05T09:37:26.316Z,51.20
2017-04-05T09:38:24.609Z,51.10
2017-04-05T09:39:23.753Z,51.20
2017-04-05T09:40:32.453Z,50.40
2017-04-05T09:41:30.713Z,50.20
2017-04-05T09:42:29.000Z,50.60
2017-04-05T09:43:40.137Z,50.80
2017-04-05T09:44:48.750Z,50.50
2017-04-05T09:45:57.457Z,50.00
2017-04-05T09:46:55.705Z,49.50
2017-04-05T09:47:53.976Z,48.00
2017-04-05T09:49:11.060Z,48.90
2017-04-05T09:50:09.424Z,49.00
2017-04-05T09:51:20.269Z,49.30
2017-04-05T09:52:35.417Z,49.00
2017-04-05T09:53:50.615Z,48.30
2017-04-05T09:54:49.493Z,47.00
2017-04-05T09:55:47.809Z,45.40
2017-04-05T09:56:46.911Z,45.70
2017-04-05T09:57:57.325Z,45.70
2017-04-05T09:58:55.560Z,45.30
2017-04-05T10:00:06.046Z,45.20
2017-04-05T10:01:15.000Z,44.30
2017-04-05T10:02:25.806Z,44.40
2017-04-05T10:03:24.101Z,45.00
2017-04-05T10:04:22.368Z,45.10
2017-04-05T10:05:37.521Z,45.70
2017-04-05T10:06:47.885Z,46.20
2017-04-05T10:08:06.552Z,46.20
2017-04-05T10:09:05.292Z,46.20
2017-04-05T10:10:03.577Z,46.10
2017-04-05T10:11:01.833Z,45.70
2017-04-05T10:12:00.100Z,45.80
2017-04-05T10:12:58.365Z,46.10
2017-04-05T10:13:56.676Z,46.10
2017-04-05T10:14:54.960Z,45.70
2017-04-05T10:16:06.001Z,45.50
2017-04-05T10:17:04.248Z,45.60
2017-04-05T10:18:08.981Z,45.20
2017-04-05T10:19:07.534Z,45.40
2017-04-05T10:20:18.270Z,44.90
2017-04-05T10:21:16.544Z,43.30
2017-04-05T10:22:14.804Z,44.20
2017-04-05T10:23:13.784Z,44.50
2017-04-05T10:24:12.089Z,45.50
2017-04-05T10:25:10.352Z,45.20
2017-04-05T10:26:21.481Z,45.30
2017-04-05T10:27:20.469Z,44.20
2017-04-05T10:28:18.725Z,45.50
2017-04-05T10:29:17.740Z,44.80
2017-04-05T10:30:29.181Z,45.20
2017-04-05T10:31:28.193Z,45.10
2017-04-05T10:32:26.440Z,44.90
2017-04-05T10:33:24.934Z,44.20
2017-04-05T10:34:25.117Z,43.80
2017-04-05T10:35:23.641Z,44.60
2017-04-05T10:36:21.841Z,43.70
2017-04-05T10:37:21.036Z,44.50
2017-04-05T10:38:19.650Z,44.60
2017-04-05T10:39:17.895Z,44.80
2017-04-05T10:40:16.351Z,44.40
2017-04-05T10:41:14.585Z,44.60
2017-04-05T10:42:25.360Z,45.00
2017-04-05T10:43:23.605Z,45.40
2017-04-05T10:44:21.860Z,45.40
2017-04-05T10:45:20.665Z,44.60
2017-04-05T10:46:19.044Z,44.80
2017-04-05T10:47:18.349Z,45.00
2017-04-05T10:48:16.606Z,46.00
2017-04-05T10:49:15.620Z,44.80
2017-04-05T10:50:13.872Z,44.90
2017-04-05T10:51:12.377Z,44.50
2017-04-05T10:52:10.665Z,44.90
2017-04-05T10:53:21.453Z,45.30
2017-04-05T10:54:20.505Z,45.60
2017-04-05T10:55:18.749Z,44.50
2017-04-05T10:56:17.020Z,44.00
2017-04-05T10:57:15.282Z,42.60
2017-04-05T10:58:13.556Z,43.10
2017-04-05T10:59:11.846Z,42.50
2017-04-05T11:00:10.124Z,42.90
2017-04-05T11:01:08.430Z,42.40
2017-04-05T11:02:07.004Z,42.50
2017-04-05T11:03:05.252Z,42.60
2017-04-05T11:04:03.565Z,42.50
2017-04-05T11:05:01.826Z,42.20
2017-04-05T11:06:00.133Z,42.40
2017-04-05T11:06:59.204Z,42.40
2017-04-05T11:07:57.528Z,42.30
2017-04-05T11:08:55.820Z,43.10
2017-04-05T11:09:54.126Z,43.10
2017-04-05T11:10:53.148Z,43.10
2017-04-05T11:11:51.430Z,42.80
2017-04-05T11:12:49.760Z,42.10
2017-04-05T11:13:48.768Z,42.30
2017-04-05T11:14:47.036Z,42.50
2017-04-05T11:15:45.314Z,42.60
2017-04-05T11:16:43.557Z,42.80
2017-04-05T11:17:41.795Z,42.90
2017-04-05T11:18:40.800Z,43.50
2017-04-05T11:19:39.079Z,43.60
2017-04-05T11:20:37.322Z,43.60
2017-04-05T11:21:35.573Z,43.70
2017-04-05T11:22:33.820Z,43.60
2017-04-05T11:23:32.089Z,43.80
2017-04-05T11:24:30.364Z,44.00
2017-04-05T11:25:29.429Z,44.00
2017-04-05T11:26:27.660Z,43.60
2017-04-05T11:27:26.644Z,43.70
2017-04-05T11:28:24.909Z,43.80
2017-04-05T11:29:23.156Z,43.80
2017-04-05T11:30:22.304Z,43.80
2017-04-05T11:31:20.566Z,44.00
2017-04-05T11:32:18.840Z,43.90
2017-04-05T11:33:18.018Z,44.10
2017-04-05T11:34:16.284Z,44.30
2017-04-05T11:35:14.586Z,44.20
2017-04-05T11:36:12.985Z,44.10
2017-04-05T11:37:11.329Z,44.40
2017-04-05T11:38:10.368Z,44.50
2017-04-05T11:39:08.649Z,44.60
2017-04-05T11:40:06.965Z,44.10
2017-04-05T11:41:05.228Z,44.10
2017-04-05T11:42:03.744Z,44.50
2017-04-05T11:43:02.000Z,44.60
2017-04-05T11:44:00.240Z,43.80
2017-04-05T11:44:58.481Z,42.10
2017-04-05T11:45:57.457Z,41.80
2017-04-05T11:47:55.080Z,41.60
2017-04-05T11:48:53.340Z,41.10
2017-04-05T11:49:51.616Z,41.90
2017-04-05T11:50:49.864Z,42.30
2017-04-05T11:51:48.092Z,42.30
2017-04-05T11:52:46.356Z,42.60
2017-04-05T11:53:44.628Z,42.70
2017-04-05T11:54:42.928Z,42.80
2017-04-05T11:55:41.169Z,42.00
2017-04-05T11:56:39.394Z,41.90
2017-04-05T11:57:37.629Z,41.80
2017-04-05T11:58:35.905Z,42.00
2017-04-05T11:59:34.183Z,43.20
2017-04-05T12:00:32.469Z,43.00
2017-04-05T12:01:31.477Z,42.70
2017-04-05T12:02:29.737Z,43.30
2017-04-05T12:03:28.073Z,42.70
2017-04-05T12:04:27.079Z,42.70
2017-04-05T12:05:26.113Z,42.20
2017-04-05T12:06:24.389Z,42.50
2017-04-05T12:07:22.661Z,42.70
2017-04-05T12:08:20.943Z,43.00
2017-04-05T12:09:19.986Z,42.80
2017-04-05T12:10:18.224Z,42.30
2017-04-05T12:11:16.696Z,42.80
2017-04-05T12:12:15.088Z,42.10
2017-04-05T12:13:13.364Z,41.80
2017-04-05T12:14:11.640Z,42.20
2017-04-05T12:15:09.918Z,42.70
2017-04-05T12:16:08.202Z,43.20
2017-04-05T12:17:06.981Z,43.20
2017-04-05T12:18:05.233Z,43.20
2017-04-05T12:19:03.501Z,42.70
2017-04-05T12:20:01.752Z,42.90
2017-04-05T12:20:59.998Z,43.00
2017-04-05T12:21:58.299Z,42.90
2017-04-05T12:22:56.551Z,43.00
2017-04-05T12:23:54.826Z,42.90
2017-04-05T12:24:53.058Z,43.00
2017-04-05T12:25:51.392Z,43.30
2017-04-05T12:26:50.960Z,43.30
2017-04-05T12:27:49.571Z,43.30
2017-04-05T12:28:48.548Z,43.20
2017-04-05T12:29:47.511Z,43.40
2017-04-05T12:30:46.497Z,43.40
2017-04-05T12:31:45.521Z,43.60
2017-04-05T12:32:43.779Z,43.50
2017-04-05T12:33:42.042Z,43.40
2017-04-05T12:34:40.296Z,44.10
2017-04-05T12:35:37.877Z,43.40
2017-04-05T12:36:36.124Z,43.70
2017-04-05T12:37:34.360Z,43.40
2017-04-05T12:38:33.365Z,42.60
2017-04-05T12:39:31.648Z,41.30
2017-04-05T12:40:29.896Z,41.40
2017-04-05T12:41:28.152Z,41.70
2017-04-05T12:42:27.216Z,41.90
2017-04-05T12:45:21.256Z,42.50
2017-04-05T12:46:19.512Z,42.60
2017-04-05T12:47:17.781Z,42.10
2017-04-05T12:48:16.040Z,42.50
2017-04-05T12:49:14.313Z,42.40
2017-04-05T12:50:12.574Z,42.60
2017-04-05T12:51:11.124Z,43.00
2017-04-05T12:52:09.392Z,43.80
2017-04-05T12:53:07.649Z,42.30
2017-04-05T12:54:05.888Z,42.30
2017-04-05T12:55:04.161Z,42.40
2017-04-05T12:56:02.415Z,42.20
2017-04-05T12:57:00.677Z,42.20
2017-04-05T12:57:58.908Z,42.30
2017-04-05T12:58:57.171Z,41.90
2017-04-05T12:59:55.448Z,41.80
2017-04-05T13:00:53.753Z,41.40
2017-04-05T13:01:52.036Z,41.50
2017-04-05T13:02:50.257Z,41.60
2017-04-05T13:03:48.573Z,41.40